createdAt,value
2022-09-30T00:01:07.491Z,9.00
2022-09-30T00:03:34.196Z,8.90
2022-09-30T00:06:08.083Z,9.00
2022-09-30T00:08:36.329Z,9.10
2022-09-30T00:11:05.903Z,9.10
2022-09-30T00:13:36.054Z,9.10
2022-09-30T00:16:03.619Z,9.10
2022-09-30T00:18:30.751Z,9.00
2022-09-30T00:20:57.603Z,9.00
2022-09-30T00:23:24.467Z,9.00
2022-09-30T00:25:57.159Z,9.00
2022-09-30T00:28:23.749Z,9.00
2022-09-30T00:30:50.430Z,9.00
2022-09-30T00:33:17.031Z,9.00
2022-09-30T00:35:43.678Z,9.00
2022-09-30T00:38:10.272Z,9.00
2022-09-30T00:40:39.207Z,8.90
2022-09-30T00:43:19.447Z,8.90
2022-09-30T00:45:57.539Z,8.70
2022-09-30T00:48:36.021Z,8.60
2022-09-30T00:51:05.330Z,8.60
2022-09-30T00:53:47.127Z,8.70
2022-09-30T00:56:21.255Z,8.60
2022-09-30T00:58:54.499Z,8.60
2022-09-30T01:01:22.310Z,8.70
2022-09-30T01:03:54.810Z,8.70
2022-09-30T01:06:23.459Z,8.70
2022-09-30T01:08:51.039Z,8.70
2022-09-30T01:11:18.029Z,8.60
2022-09-30T01:13:48.787Z,8.40
2022-09-30T01:16:26.173Z,8.20
2022-09-30T01:19:05.872Z,7.90
2022-09-30T01:21:54.154Z,7.70
2022-09-30T01:24:26.628Z,7.70
2022-09-30T01:27:12.520Z,8.00
2022-09-30T01:30:11.491Z,8.00
2022-09-30T01:32:58.126Z,8.10
2022-09-30T01:35:27.757Z,8.00
2022-09-30T01:38:05.141Z,7.80
2022-09-30T01:40:49.413Z,7.90
2022-09-30T01:43:42.393Z,8.00
2022-09-30T01:46:33.931Z,8.10
2022-09-30T01:49:20.654Z,8.20
2022-09-30T01:51:58.203Z,8.20
2022-09-30T01:54:24.799Z,8.20
2022-09-30T01:56:58.660Z,8.30
2022-09-30T01:59:40.237Z,8.30
2022-09-30T02:02:31.238Z,8.30
2022-09-30T02:05:07.062Z,8.30
2022-09-30T02:07:46.781Z,8.30
2022-09-30T02:10:41.942Z,8.30
2022-09-30T02:13:22.235Z,8.10
2022-09-30T02:23:32.505Z,8.20
2022-09-30T02:26:07.728Z,8.20
2022-09-30T02:28:40.940Z,8.10
2022-09-30T02:31:11.086Z,7.90
2022-09-30T02:33:59.307Z,7.70
2022-09-30T02:36:31.900Z,7.70
2022-09-30T02:39:04.227Z,7.70
2022-09-30T02:41:36.782Z,7.50
2022-09-30T02:44:03.474Z,7.40
2022-09-30T02:47:02.492Z,7.40
2022-09-30T02:49:40.006Z,7.60
2022-09-30T02:52:18.854Z,7.70
2022-09-30T02:54:53.754Z,7.80
2022-09-30T02:57:20.505Z,7.80
2022-09-30T02:59:51.344Z,7.70
2022-09-30T03:02:19.028Z,7.80
2022-09-30T03:04:47.571Z,7.80
2022-09-30T03:07:14.471Z,7.90
2022-09-30T03:09:41.384Z,7.80
2022-09-30T03:12:14.440Z,7.70
2022-09-30T03:15:00.475Z,7.60
2022-09-30T03:17:38.798Z,7.50
2022-09-30T03:20:50.031Z,7.40
2022-09-30T03:23:35.106Z,7.30
2022-09-30T03:26:34.935Z,7.40
2022-09-30T03:29:42.691Z,7.40
2022-09-30T03:32:27.879Z,7.60
2022-09-30T03:35:04.416Z,7.60
2022-09-30T03:37:45.460Z,7.60
2022-09-30T03:40:38.933Z,7.60
2022-09-30T03:43:12.057Z,7.60
2022-09-30T03:45:57.453Z,7.60
2022-09-30T03:48:27.261Z,7.60
2022-09-30T03:50:54.859Z,7.70
2022-09-30T03:53:22.211Z,7.70
2022-09-30T03:55:51.457Z,7.70
2022-09-30T03:58:20.310Z,7.70
2022-09-30T04:00:52.982Z,7.70
2022-09-30T04:03:21.421Z,7.70
2022-09-30T04:05:48.888Z,7.70
2022-09-30T04:08:16.309Z,7.60
2022-09-30T04:10:46.554Z,7.60
2022-09-30T04:13:13.410Z,7.50
2022-09-30T04:15:40.599Z,7.40
2022-09-30T04:18:07.591Z,7.40
2022-09-30T04:20:34.224Z,7.30
2022-09-30T04:23:01.423Z,7.40
2022-09-30T04:25:28.887Z,7.40
2022-09-30T04:27:56.269Z,7.50
2022-09-30T04:30:26.430Z,7.50
2022-09-30T04:32:54.758Z,7.40
2022-09-30T04:35:21.407Z,7.10
2022-09-30T04:37:48.301Z,6.90
2022-09-30T04:40:16.383Z,6.90
2022-09-30T04:42:43.916Z,7.00
2022-09-30T04:45:12.422Z,7.10
2022-09-30T04:47:42.640Z,7.20
2022-09-30T04:50:09.437Z,7.10
2022-09-30T04:52:36.086Z,6.90
2022-09-30T04:55:02.710Z,7.00
2022-09-30T04:57:29.276Z,7.00
2022-09-30T04:59:55.864Z,7.00
2022-09-30T05:02:22.587Z,7.10
2022-09-30T05:04:49.199Z,7.10
2022-09-30T05:07:15.972Z,6.90
2022-09-30T05:09:42.717Z,6.80
2022-09-30T05:12:10.885Z,6.80
2022-09-30T05:14:37.594Z,6.80
2022-09-30T05:17:04.486Z,6.70
2022-09-30T05:19:31.146Z,6.60
2022-09-30T05:21:57.787Z,6.70
2022-09-30T05:24:24.440Z,6.80
2022-09-30T05:26:51.192Z,6.90
2022-09-30T05:29:17.879Z,6.90
2022-09-30T05:31:44.587Z,7.00
2022-09-30T05:34:11.319Z,7.10
2022-09-30T05:36:37.970Z,7.10
2022-09-30T05:39:04.861Z,7.10
2022-09-30T05:41:31.579Z,7.10
2022-09-30T05:44:01.183Z,6.90
2022-09-30T05:46:28.236Z,6.80
2022-09-30T05:48:55.314Z,6.70
2022-09-30T05:51:22.590Z,6.70
2022-09-30T05:53:49.239Z,6.80
2022-09-30T05:56:16.013Z,6.70
2022-09-30T05:58:42.632Z,6.80
2022-09-30T06:01:14.534Z,6.90
2022-09-30T06:03:46.064Z,7.00
2022-09-30T06:06:13.732Z,7.10
2022-09-30T06:08:41.258Z,7.20
2022-09-30T06:11:13.356Z,7.30
2022-09-30T06:13:41.071Z,7.30
2022-09-30T06:16:09.155Z,7.40
2022-09-30T06:18:36.282Z,7.40
2022-09-30T06:21:04.351Z,7.30
2022-09-30T06:23:32.244Z,7.30
2022-09-30T06:25:59.027Z,7.40
2022-09-30T06:28:27.159Z,7.60
2022-09-30T06:30:54.647Z,7.70
2022-09-30T06:33:21.946Z,7.70
2022-09-30T06:35:48.726Z,7.70
2022-09-30T06:38:16.132Z,7.70
2022-09-30T06:40:45.902Z,7.80
2022-09-30T06:43:12.591Z,7.80
2022-09-30T06:45:41.542Z,7.80
2022-09-30T06:48:09.689Z,7.70
2022-09-30T06:50:38.961Z,7.70
2022-09-30T06:53:07.351Z,7.70
2022-09-30T06:55:39.160Z,7.90
2022-09-30T06:58:14.308Z,8.00
2022-09-30T07:00:41.116Z,7.90
2022-09-30T07:03:19.516Z,7.90
2022-09-30T07:05:46.068Z,8.00
2022-09-30T07:08:12.643Z,8.10
2022-09-30T07:10:39.634Z,8.10
2022-09-30T07:13:06.730Z,8.20
2022-09-30T07:15:33.413Z,8.20
2022-09-30T07:18:00.608Z,8.20
2022-09-30T07:20:27.217Z,8.20
2022-09-30T07:22:53.890Z,8.30
2022-09-30T07:25:20.568Z,8.20
2022-09-30T07:27:47.884Z,8.30
2022-09-30T07:30:24.058Z,8.30
2022-09-30T07:32:53.457Z,8.40
2022-09-30T07:35:20.081Z,8.50
2022-09-30T07:37:46.702Z,8.50
2022-09-30T07:40:13.414Z,8.60
2022-09-30T07:42:45.582Z,8.70
2022-09-30T07:45:16.942Z,8.70
2022-09-30T07:47:43.640Z,8.70
2022-09-30T07:50:10.750Z,8.80
2022-09-30T07:52:37.698Z,9.00
2022-09-30T07:55:04.597Z,9.00
2022-09-30T07:57:31.205Z,9.10
2022-09-30T07:59:57.854Z,9.10
2022-09-30T08:02:24.945Z,9.20
2022-09-30T08:04:51.587Z,9.20
2022-09-30T08:07:19.004Z,9.30
2022-09-30T08:09:45.886Z,9.40
2022-09-30T08:12:12.522Z,9.40
2022-09-30T08:14:39.234Z,9.50
2022-09-30T08:17:06.201Z,9.50
2022-09-30T08:19:33.864Z,9.60
2022-09-30T08:24:27.824Z,9.70
2022-09-30T08:26:55.062Z,9.80
2022-09-30T08:29:42.544Z,9.90
2022-09-30T08:32:08.704Z,10.00
2022-09-30T08:34:35.769Z,10.10
2022-09-30T08:37:07.792Z,10.20
2022-09-30T08:39:36.797Z,10.20
2022-09-30T08:42:38.821Z,10.30
2022-09-30T08:45:13.242Z,10.40
2022-09-30T08:48:00.354Z,10.50
2022-09-30T08:50:53.530Z,10.60
2022-09-30T08:53:30.508Z,10.60
2022-09-30T08:56:02.361Z,10.60
2022-09-30T08:58:32.644Z,10.70
2022-09-30T09:01:38.447Z,10.70
2022-09-30T09:04:06.560Z,10.70
2022-09-30T09:06:39.500Z,10.80
2022-09-30T09:09:32.526Z,10.80
2022-09-30T09:12:05.433Z,10.90
2022-09-30T09:15:03.142Z,10.90
2022-09-30T09:17:38.610Z,11.00
2022-09-30T09:20:15.274Z,11.00
2022-09-30T09:22:44.382Z,11.10
2022-09-30T09:25:15.986Z,11.20
2022-09-30T09:28:11.899Z,11.20
2022-09-30T09:30:45.999Z,11.20
2022-09-30T09:33:27.670Z,11.40
2022-09-30T09:36:24.882Z,11.50
2022-09-30T09:39:06.503Z,11.50
2022-09-30T09:42:00.108Z,11.50
2022-09-30T09:44:44.902Z,11.60
2022-09-30T09:47:17.278Z,11.60
2022-09-30T09:49:44.848Z,11.70
2022-09-30T09:52:14.511Z,11.70
2022-09-30T09:54:47.408Z,11.70
2022-09-30T09:57:17.573Z,11.80
2022-09-30T10:00:26.564Z,11.80
2022-09-30T10:03:18.670Z,11.90
2022-09-30T10:05:58.106Z,12.00
2022-09-30T10:08:24.708Z,12.10
2022-09-30T10:10:53.586Z,12.30
2022-09-30T10:13:23.814Z,12.30
2022-09-30T10:15:56.268Z,12.40
2022-09-30T10:18:37.840Z,12.50
2022-09-30T10:21:23.152Z,12.70
2022-09-30T10:23:49.856Z,12.80
2022-09-30T10:26:22.758Z,12.90
2022-09-30T10:28:54.436Z,13.10
2022-09-30T10:31:33.074Z,13.20
2022-09-30T10:34:08.669Z,13.40
2022-09-30T10:36:37.493Z,13.50
2022-09-30T10:39:08.980Z,13.60
2022-09-30T10:41:38.468Z,13.60
2022-09-30T10:44:13.755Z,13.60
2022-09-30T10:46:41.904Z,13.60
2022-09-30T10:49:41.041Z,13.60
2022-09-30T10:52:20.813Z,13.60
2022-09-30T10:54:58.720Z,13.60
2022-09-30T10:57:38.660Z,13.60
2022-09-30T11:00:12.217Z,13.60
2022-09-30T11:02:51.909Z,13.60
2022-09-30T11:05:24.823Z,13.60
2022-09-30T11:08:19.682Z,13.60
2022-09-30T11:11:23.238Z,13.60
2022-09-30T11:14:01.724Z,13.60
2022-09-30T11:16:49.527Z,13.50
2022-09-30T11:19:30.263Z,13.50
2022-09-30T11:22:37.372Z,13.60
2022-09-30T11:25:08.731Z,13.70
2022-09-30T11:28:00.426Z,13.60
2022-09-30T11:30:52.914Z,13.60
2022-09-30T11:33:37.833Z,13.60
2022-09-30T11:36:22.700Z,13.60
2022-09-30T11:39:01.293Z,13.60
2022-09-30T11:41:50.467Z,13.70
2022-09-30T11:44:34.808Z,13.60
2022-09-30T11:47:16.685Z,13.70
2022-09-30T11:50:10.116Z,13.70
2022-09-30T11:52:36.687Z,13.70
2022-09-30T11:55:15.692Z,13.60
2022-09-30T11:58:22.270Z,13.60
2022-09-30T12:01:26.130Z,13.50
2022-09-30T12:04:02.870Z,13.50
2022-09-30T12:06:35.079Z,13.50
2022-09-30T12:09:11.143Z,13.50
2022-09-30T12:11:49.658Z,13.50
2022-09-30T12:14:46.079Z,13.40
2022-09-30T12:17:21.110Z,13.40
2022-09-30T12:19:51.441Z,13.50
2022-09-30T12:22:28.618Z,13.50
2022-09-30T12:24:55.891Z,13.50
2022-09-30T12:27:35.115Z,13.50
2022-09-30T12:30:17.622Z,13.60
2022-09-30T12:33:22.061Z,13.60
2022-09-30T12:36:22.138Z,13.70
2022-09-30T12:38:49.142Z,13.80
2022-09-30T12:41:43.677Z,13.80
2022-09-30T12:44:22.281Z,13.90
2022-09-30T12:47:23.222Z,13.90
2022-09-30T12:49:51.135Z,13.90
2022-09-30T12:52:21.390Z,14.00
2022-09-30T12:55:01.310Z,14.00
2022-09-30T12:57:32.035Z,14.10
2022-09-30T13:00:13.617Z,14.10
2022-09-30T13:02:43.672Z,14.10
2022-09-30T13:05:39.175Z,14.20
2022-09-30T13:08:05.798Z,14.20
2022-09-30T13:10:34.978Z,14.30
2022-09-30T13:13:10.748Z,14.30
2022-09-30T13:15:41.451Z,14.30
2022-09-30T13:18:20.157Z,14.40
2022-09-30T13:21:05.248Z,14.40
2022-09-30T13:23:44.932Z,14.40
2022-09-30T13:26:44.629Z,14.40
2022-09-30T13:29:14.003Z,14.40
2022-09-30T13:31:50.035Z,14.50
2022-09-30T13:34:33.443Z,14.50
2022-09-30T13:37:02.863Z,14.50
2022-09-30T13:39:35.415Z,14.50
2022-09-30T13:42:12.219Z,14.50
2022-09-30T13:45:16.941Z,14.50
2022-09-30T13:47:47.922Z,14.50
2022-09-30T13:50:21.084Z,14.50
2022-09-30T13:52:53.731Z,14.50
2022-09-30T13:55:25.771Z,14.50
2022-09-30T13:58:04.747Z,14.50
2022-09-30T14:00:46.556Z,14.60
2022-09-30T14:03:38.778Z,14.60
2022-09-30T14:06:26.883Z,14.60
2022-09-30T14:09:01.074Z,14.60
2022-09-30T14:11:49.871Z,14.70
2022-09-30T14:15:07.011Z,14.70
2022-09-30T14:17:48.568Z,14.70
2022-09-30T14:20:24.441Z,14.70
2022-09-30T14:22:51.197Z,14.70
2022-09-30T14:25:21.374Z,14.70
2022-09-30T14:27:59.968Z,14.70
2022-09-30T14:30:27.542Z,14.70
2022-09-30T14:33:01.839Z,14.80
2022-09-30T14:35:30.181Z,14.80
2022-09-30T14:37:59.874Z,14.80
2022-09-30T14:40:30.034Z,14.90
2022-09-30T14:43:05.313Z,14.90
2022-09-30T14:45:38.914Z,14.90
2022-09-30T14:48:15.147Z,14.90
2022-09-30T14:50:52.814Z,14.90
2022-09-30T14:53:26.497Z,14.90
2022-09-30T14:55:53.290Z,14.90
2022-09-30T14:58:28.957Z,14.90
2022-09-30T15:01:01.866Z,14.90
2022-09-30T15:03:29.713Z,14.90
2022-09-30T15:05:57.977Z,14.90
2022-09-30T15:08:24.943Z,15.00
2022-09-30T15:10:54.568Z,15.00
2022-09-30T15:13:25.213Z,15.00
2022-09-30T15:15:52.018Z,15.00
2022-09-30T15:18:25.820Z,15.00
2022-09-30T15:20:55.134Z,15.00
2022-09-30T15:23:30.013Z,15.00
2022-09-30T15:25:58.040Z,15.00
2022-09-30T15:28:25.354Z,15.00
2022-09-30T15:30:54.168Z,15.00
2022-09-30T15:33:24.062Z,15.00
2022-09-30T15:35:53.100Z,15.00
2022-09-30T15:38:25.211Z,15.00
2022-09-30T15:41:18.536Z,15.00
2022-09-30T15:43:51.623Z,15.00
2022-09-30T15:46:33.741Z,15.00
2022-09-30T15:49:01.737Z,15.00
2022-09-30T15:51:32.980Z,15.00
2022-09-30T15:54:02.051Z,15.00
2022-09-30T15:56:34.276Z,15.00
2022-09-30T15:59:09.459Z,15.00
2022-09-30T16:01:40.146Z,15.00
2022-09-30T16:04:15.197Z,14.90
2022-09-30T16:06:41.972Z,15.00
2022-09-30T16:09:19.110Z,15.00
2022-09-30T16:12:13.048Z,14.90
2022-09-30T16:14:48.322Z,14.90
2022-09-30T16:17:38.344Z,14.90
2022-09-30T16:20:22.869Z,14.90
2022-09-30T16:22:54.885Z,14.90
2022-09-30T16:25:33.601Z,14.80
2022-09-30T16:28:12.338Z,14.80
2022-09-30T16:30:44.649Z,14.80
2022-09-30T16:33:13.533Z,14.80
2022-09-30T16:35:42.481Z,14.80
2022-09-30T16:38:13.525Z,14.80
2022-09-30T16:40:40.365Z,14.70
2022-09-30T16:43:08.133Z,14.70
2022-09-30T16:45:35.293Z,14.70
2022-09-30T16:48:05.730Z,14.60
2022-09-30T16:50:39.959Z,14.60
2022-09-30T16:53:06.814Z,14.60
2022-09-30T16:55:33.634Z,14.50
2022-09-30T16:58:00.399Z,14.50
2022-09-30T17:00:28.324Z,14.50
2022-09-30T17:02:55.413Z,14.50
2022-09-30T17:05:24.251Z,14.50
2022-09-30T17:08:00.203Z,14.40
2022-09-30T17:10:32.383Z,14.40
2022-09-30T17:13:00.176Z,14.40
2022-09-30T17:15:28.866Z,14.30
2022-09-30T17:17:55.693Z,14.30
2022-09-30T17:20:23.566Z,14.30
2022-09-30T17:22:50.564Z,14.20
2022-09-30T17:25:18.006Z,14.20
2022-09-30T17:27:48.905Z,14.10
2022-09-30T17:30:15.902Z,14.10
2022-09-30T17:32:42.613Z,14.00
2022-09-30T17:35:10.092Z,14.00
2022-09-30T17:37:38.536Z,14.00
2022-09-30T17:40:27.213Z,13.90
2022-09-30T17:43:12.932Z,13.90
2022-09-30T17:45:45.161Z,13.90
2022-09-30T17:48:13.457Z,13.80
2022-09-30T17:50:44.156Z,13.70
2022-09-30T17:53:16.780Z,13.70
2022-09-30T17:55:46.971Z,13.70
2022-09-30T17:58:14.741Z,13.60
2022-09-30T18:00:42.370Z,13.60
2022-09-30T18:03:09.793Z,13.60
2022-09-30T18:05:36.871Z,13.50
2022-09-30T18:08:03.697Z,13.50
2022-09-30T18:10:30.290Z,13.50
2022-09-30T18:12:57.179Z,13.50
2022-09-30T18:15:23.905Z,13.40
2022-09-30T18:17:50.550Z,13.40
2022-09-30T18:20:19.656Z,13.40
2022-09-30T18:22:48.700Z,13.30
2022-09-30T18:25:21.783Z,13.30
2022-09-30T18:27:54.692Z,13.30
2022-09-30T18:30:21.732Z,13.30
2022-09-30T18:32:53.710Z,13.30
2022-09-30T18:35:22.272Z,13.20
2022-09-30T18:37:49.969Z,13.20
2022-09-30T18:40:22.408Z,13.20
2022-09-30T18:42:56.219Z,13.10
2022-09-30T18:45:23.562Z,13.10
2022-09-30T18:47:55.054Z,13.10
2022-09-30T18:50:23.145Z,13.10
2022-09-30T18:52:51.069Z,13.10
2022-09-30T18:55:18.526Z,13.00
2022-09-30T18:57:48.246Z,13.00
2022-09-30T19:00:16.771Z,13.00
2022-09-30T19:02:47.208Z,13.00
2022-09-30T19:05:16.604Z,13.00
2022-09-30T19:07:43.329Z,12.90
2022-09-30T19:10:12.432Z,12.90
2022-09-30T19:12:40.430Z,12.90
2022-09-30T19:15:09.736Z,12.80
2022-09-30T19:17:37.342Z,12.70
2022-09-30T19:20:05.677Z,12.70
2022-09-30T19:22:36.978Z,12.70
2022-09-30T19:25:12.834Z,12.70
2022-09-30T19:27:41.274Z,12.60
2022-09-30T19:30:13.370Z,12.60
2022-09-30T19:32:40.009Z,12.60
2022-09-30T19:35:11.871Z,12.60
2022-09-30T19:37:43.011Z,12.50
2022-09-30T19:40:20.979Z,12.40
2022-09-30T19:42:49.511Z,12.40
2022-09-30T19:45:16.998Z,12.30
2022-09-30T19:47:44.153Z,12.30
2022-09-30T19:50:10.760Z,12.30
2022-09-30T19:52:47.814Z,12.30
2022-09-30T19:55:17.962Z,12.30
2022-09-30T19:57:44.639Z,12.20
2022-09-30T20:00:12.882Z,12.20
2022-09-30T20:02:39.672Z,12.20
2022-09-30T20:05:07.242Z,12.20
2022-09-30T20:07:34.986Z,12.20
2022-09-30T20:10:01.780Z,12.10
2022-09-30T20:12:29.010Z,12.00
2022-09-30T20:15:14.681Z,12.00
2022-09-30T20:17:41.310Z,11.90
2022-09-30T20:20:27.000Z,11.90
2022-09-30T20:22:53.638Z,11.90
2022-09-30T20:25:20.299Z,11.90
2022-09-30T20:27:51.954Z,12.00
2022-09-30T20:30:19.271Z,11.80
2022-09-30T20:32:45.903Z,11.80
2022-09-30T20:35:12.934Z,11.80
2022-09-30T20:37:40.650Z,11.80
2022-09-30T20:40:09.255Z,11.80
2022-09-30T20:42:38.130Z,11.70
2022-09-30T20:45:09.717Z,11.70
2022-09-30T20:47:37.567Z,11.70
2022-09-30T20:50:05.908Z,11.60
2022-09-30T20:52:32.899Z,11.60
2022-09-30T20:55:00.605Z,11.60
2022-09-30T20:57:29.962Z,11.40
2022-09-30T20:59:57.415Z,11.30
2022-09-30T21:02:27.923Z,11.30
2022-09-30T21:04:57.467Z,11.30
2022-09-30T21:07:25.170Z,11.20
2022-09-30T21:09:51.931Z,11.20
2022-09-30T21:12:18.612Z,11.30
2022-09-30T21:14:45.514Z,11.40
2022-09-30T21:17:12.157Z,11.40
2022-09-30T21:19:38.749Z,11.40
2022-09-30T21:22:05.365Z,11.30
2022-09-30T21:24:31.954Z,11.20
2022-09-30T21:26:58.547Z,11.20
2022-09-30T21:29:25.562Z,11.10
2022-09-30T21:31:52.199Z,11.00
2022-09-30T21:34:18.838Z,11.00
2022-09-30T21:36:46.286Z,11.10
2022-09-30T21:39:12.978Z,11.00
2022-09-30T21:41:40.581Z,11.00
2022-09-30T21:44:07.500Z,11.00
2022-09-30T21:46:35.560Z,11.00
2022-09-30T21:49:15.521Z,10.90
2022-09-30T21:51:42.252Z,11.00
2022-09-30T21:54:11.562Z,10.90
2022-09-30T21:56:38.950Z,10.90
2022-09-30T21:59:05.977Z,10.90
2022-09-30T22:01:33.366Z,10.80
2022-09-30T22:04:00.248Z,10.80
2022-09-30T22:06:26.890Z,10.80
2022-09-30T22:08:53.520Z,10.70
2022-09-30T22:11:23.744Z,10.70
2022-09-30T22:13:55.755Z,10.70
2022-09-30T22:16:24.294Z,10.60
2022-09-30T22:18:55.433Z,10.50
2022-09-30T22:21:22.344Z,10.60
2022-09-30T22:23:49.622Z,10.70
2022-09-30T22:26:18.971Z,10.70
2022-09-30T22:28:47.558Z,10.60
2022-09-30T22:31:20.046Z,10.50
2022-09-30T22:34:10.603Z,10.50
2022-09-30T22:36:56.380Z,10.60
2022-09-30T22:39:23.670Z,10.60
2022-09-30T22:41:54.508Z,10.60
2022-09-30T22:44:25.355Z,10.60
2022-09-30T22:46:53.344Z,10.50
2022-09-30T22:49:20.486Z,10.30
2022-09-30T22:51:54.698Z,10.30
2022-09-30T22:54:22.478Z,10.20
2022-09-30T22:56:50.327Z,10.20
2022-09-30T22:59:22.155Z,10.20
2022-09-30T23:01:49.238Z,10.20
2022-09-30T23:04:17.244Z,10.20
2022-09-30T23:06:48.208Z,10.30
2022-09-30T23:09:15.450Z,10.30
2022-09-30T23:11:45.962Z,10.40
2022-09-30T23:14:13.309Z,10.40
2022-09-30T23:16:40.373Z,10.40
2022-09-30T23:19:07.042Z,10.30
2022-09-30T23:21:34.184Z,10.30
2022-09-30T23:24:01.920Z,10.20
2022-09-30T23:26:31.135Z,10.00
2022-09-30T23:29:16.175Z,10.00
2022-09-30T23:31:42.892Z,10.10
2022-09-30T23:34:09.932Z,10.00
2022-09-30T23:36:37.392Z,10.00
2022-09-30T23:39:14.361Z,10.10
2022-09-30T23:41:43.443Z,10.00
2022-09-30T23:44:10.094Z,9.90
2022-09-30T23:46:36.863Z,10.00
2022-09-30T23:49:03.470Z,10.10
2022-09-30T23:51:30.533Z,10.10
2022-09-30T23:53:58.486Z,10.00
2022-09-30T23:56:25.242Z,10.00
2022-09-30T23:58:54.612Z,10.00
